createdAt,value
2022-10-30T00:01:59.822Z,101690
2022-10-30T00:06:57.990Z,101690
2022-10-30T00:11:58.091Z,101680
2022-10-30T00:16:58.001Z,101690
2022-10-30T00:26:57.995Z,101690
2022-10-30T00:31:58.063Z,101690
2022-10-30T00:36:58.030Z,101680
2022-10-30T00:41:58.067Z,101680
2022-10-30T00:47:01.032Z,101680
2022-10-30T00:51:59.686Z,101680
2022-10-30T00:56:58.156Z,101670
2022-10-30T01:02:01.675Z,101680
2022-10-30T01:07:04.436Z,101670
2022-10-30T01:11:58.162Z,101680
2022-10-30T01:17:11.361Z,101690
2022-10-30T01:22:09.082Z,101690
2022-10-30T01:27:18.052Z,101690
2022-10-30T01:32:13.818Z,101690
2022-10-30T01:37:12.894Z,101690
2022-10-30T01:41:58.235Z,101690
2022-10-30T01:47:13.841Z,101680
2022-10-30T01:52:07.489Z,101690
2022-10-30T01:57:03.600Z,101690
2022-10-30T02:01:59.873Z,101690
2022-10-30T02:06:58.421Z,101690
2022-10-30T02:11:59.481Z,101690
2022-10-30T02:17:02.004Z,101690
2022-10-30T02:21:58.595Z,101690
2022-10-30T02:26:58.366Z,101690
2022-10-30T02:31:58.363Z,101690
2022-10-30T02:36:58.381Z,101700
2022-10-30T02:41:58.315Z,101700
2022-10-30T02:46:58.322Z,101700
2022-10-30T02:51:58.361Z,101690
2022-10-30T02:56:58.375Z,101700
2022-10-30T03:01:59.082Z,101710
2022-10-30T03:06:58.392Z,101700
2022-10-30T03:11:58.365Z,101710
2022-10-30T03:16:58.549Z,101710
2022-10-30T03:21:58.400Z,101710
2022-10-30T03:26:58.404Z,101710
2022-10-30T03:31:58.433Z,101710
2022-10-30T03:36:58.439Z,101710
2022-10-30T03:41:58.445Z,101720
2022-10-30T03:46:58.551Z,101710
2022-10-30T03:51:58.450Z,101710
2022-10-30T03:56:58.595Z,101720
2022-10-30T04:01:59.153Z,101710
2022-10-30T04:06:58.519Z,101720
2022-10-30T04:11:58.518Z,101720
2022-10-30T04:16:58.609Z,101720
2022-10-30T04:21:58.534Z,101720
2022-10-30T04:26:59.346Z,101710
2022-10-30T04:31:58.606Z,101710
2022-10-30T04:36:58.606Z,101700
2022-10-30T04:41:58.628Z,101700
2022-10-30T04:46:58.718Z,101690
2022-10-30T04:51:58.609Z,101700
2022-10-30T04:56:58.608Z,101690
2022-10-30T05:01:59.224Z,101690
2022-10-30T05:06:58.640Z,101690
2022-10-30T05:12:00.059Z,101710
2022-10-30T05:16:59.105Z,101710
2022-10-30T05:21:58.678Z,101720
2022-10-30T05:26:58.676Z,101720
2022-10-30T05:31:58.723Z,101720
2022-10-30T05:36:58.713Z,101710
2022-10-30T05:41:58.728Z,101700
2022-10-30T05:46:58.762Z,101710
2022-10-30T05:51:58.765Z,101710
2022-10-30T05:56:58.762Z,101720
2022-10-30T06:01:59.400Z,101710
2022-10-30T06:06:58.760Z,101700
2022-10-30T06:11:58.800Z,101700
2022-10-30T06:16:58.824Z,101690
2022-10-30T06:21:58.800Z,101690
2022-10-30T06:26:58.822Z,101690
2022-10-30T06:32:00.877Z,101690
2022-10-30T06:36:58.886Z,101690
2022-10-30T06:41:58.863Z,101700
2022-10-30T06:46:58.862Z,101700
2022-10-30T06:51:58.908Z,101700
2022-10-30T07:02:01.052Z,101710
2022-10-30T07:06:58.898Z,101710
2022-10-30T07:12:04.065Z,101710
2022-10-30T07:16:59.054Z,101710
2022-10-30T07:21:59.828Z,101710
2022-10-30T07:26:58.988Z,101720
2022-10-30T07:32:03.131Z,101730
2022-10-30T07:36:58.963Z,101720
2022-10-30T07:41:59.011Z,101700
2022-10-30T07:46:59.031Z,101690
2022-10-30T07:51:59.007Z,101690
2022-10-30T07:56:59.038Z,101700
2022-10-30T08:01:59.835Z,101700
2022-10-30T08:06:59.030Z,101710
2022-10-30T08:11:59.096Z,101700
2022-10-30T08:16:59.135Z,101710
2022-10-30T08:22:00.079Z,101700
2022-10-30T08:26:59.087Z,101700
2022-10-30T08:31:59.640Z,101700
2022-10-30T08:36:59.127Z,101700
2022-10-30T08:41:59.234Z,101710
2022-10-30T08:46:59.132Z,101700
2022-10-30T08:51:59.147Z,101700
2022-10-30T08:56:59.168Z,101700
2022-10-30T09:01:59.896Z,101710
2022-10-30T09:07:00.231Z,101700
2022-10-30T09:11:59.222Z,101700
2022-10-30T09:16:59.197Z,101690
2022-10-30T09:21:59.227Z,101680
2022-10-30T09:26:59.322Z,101670
2022-10-30T09:31:59.516Z,101670
2022-10-30T09:36:59.257Z,101680
2022-10-30T09:42:09.203Z,101680
2022-10-30T09:47:07.553Z,101690
2022-10-30T09:52:18.181Z,101690
2022-10-30T09:57:14.186Z,101700
2022-10-30T10:02:13.047Z,101710
2022-10-30T10:07:05.797Z,101720
2022-10-30T10:12:05.437Z,101720
2022-10-30T10:17:02.237Z,101710
2022-10-30T10:22:02.110Z,101710
2022-10-30T10:27:16.080Z,101700
2022-10-30T10:32:10.359Z,101700
2022-10-30T10:37:12.265Z,101700
2022-10-30T10:42:16.428Z,101700
2022-10-30T10:47:14.503Z,101700
2022-10-30T10:52:13.498Z,101690
2022-10-30T10:56:59.453Z,101700
2022-10-30T11:02:19.519Z,101690
2022-10-30T11:07:14.496Z,101700
2022-10-30T11:11:59.487Z,101690
2022-10-30T11:17:18.320Z,101680
2022-10-30T11:27:16.960Z,101660
2022-10-30T11:32:01.415Z,101660
2022-10-30T11:36:59.594Z,101660
2022-10-30T11:42:03.251Z,101670
2022-10-30T11:47:00.224Z,101670
2022-10-30T11:52:00.026Z,101660
2022-10-30T11:56:59.592Z,101650
2022-10-30T12:02:12.926Z,101640
2022-10-30T12:07:06.396Z,101640
2022-10-30T12:12:09.284Z,101640
2022-10-30T12:16:59.694Z,101640
2022-10-30T12:21:59.673Z,101640
2022-10-30T12:27:02.467Z,101640
2022-10-30T12:32:06.439Z,101640
2022-10-30T12:37:13.788Z,101630
2022-10-30T12:42:07.140Z,101620
2022-10-30T12:47:07.041Z,101630
2022-10-30T12:52:06.577Z,101630
2022-10-30T12:57:07.918Z,101630
2022-10-30T13:02:12.995Z,101620
2022-10-30T13:07:17.440Z,101610
2022-10-30T13:12:13.332Z,101610
2022-10-30T13:16:59.823Z,101600
2022-10-30T13:22:06.816Z,101610
2022-10-30T13:27:15.365Z,101600
2022-10-30T13:32:13.345Z,101610
2022-10-30T13:37:14.321Z,101610
2022-10-30T13:42:11.120Z,101620
2022-10-30T13:47:11.729Z,101620
2022-10-30T13:52:08.836Z,101620
2022-10-30T13:57:07.468Z,101620
2022-10-30T14:02:14.730Z,101620
2022-10-30T14:07:17.847Z,101610
2022-10-30T14:12:19.778Z,101610
2022-10-30T14:17:11.706Z,101610
2022-10-30T14:21:59.916Z,101610
2022-10-30T14:27:03.159Z,101620
2022-10-30T14:32:11.925Z,101620
2022-10-30T14:36:59.927Z,101620
2022-10-30T14:42:19.857Z,101600
2022-10-30T14:47:19.855Z,101600
2022-10-30T14:52:14.198Z,101590
2022-10-30T14:56:59.964Z,101610
2022-10-30T15:02:11.485Z,101620
2022-10-30T15:07:05.947Z,101630
2022-10-30T15:11:44.878Z,101640
2022-10-30T15:16:35.862Z,101650
2022-10-30T15:21:35.303Z,101650
2022-10-30T15:26:35.167Z,101650
2022-10-30T15:31:31.051Z,101670
2022-10-30T15:36:40.284Z,101680
2022-10-30T15:41:33.701Z,101690
2022-10-30T15:46:31.091Z,101700
2022-10-30T15:51:33.108Z,101720
2022-10-30T15:56:33.950Z,101730
2022-10-30T16:01:34.088Z,101740
2022-10-30T16:06:31.346Z,101750
2022-10-30T16:11:31.063Z,101760
2022-10-30T16:16:31.114Z,101760
2022-10-30T16:21:31.270Z,101770
2022-10-30T16:26:33.172Z,101780
2022-10-30T16:31:34.870Z,101780
2022-10-30T16:36:31.395Z,101790
2022-10-30T16:41:31.783Z,101790
2022-10-30T16:46:42.764Z,101790
2022-10-30T16:51:31.493Z,101790
2022-10-30T16:56:31.345Z,101800
2022-10-30T17:01:32.192Z,101810
2022-10-30T17:06:43.464Z,101790
2022-10-30T17:11:35.285Z,101790
2022-10-30T17:16:34.545Z,101790
2022-10-30T17:21:40.031Z,101790
2022-10-30T17:26:36.262Z,101800
2022-10-30T17:31:38.442Z,101790
2022-10-30T17:36:31.138Z,101790
2022-10-30T17:41:31.122Z,101780
2022-10-30T17:46:31.271Z,101790
2022-10-30T17:51:31.158Z,101820
2022-10-30T17:56:32.649Z,101820
2022-10-30T18:01:31.852Z,101830
2022-10-30T18:06:31.186Z,101850
2022-10-30T18:11:31.199Z,101870
2022-10-30T18:16:31.530Z,101880
2022-10-30T18:21:31.218Z,101880
2022-10-30T18:26:35.161Z,101890
2022-10-30T18:31:31.542Z,101890
2022-10-30T18:36:31.228Z,101910
2022-10-30T18:41:35.187Z,101910
2022-10-30T18:46:32.931Z,101910
2022-10-30T18:51:31.330Z,101920
2022-10-30T18:56:31.301Z,101920
2022-10-30T19:01:32.796Z,101930
2022-10-30T19:06:31.383Z,101930
2022-10-30T19:11:32.273Z,101920
2022-10-30T19:16:31.337Z,101910
2022-10-30T19:21:31.355Z,101930
2022-10-30T19:26:31.433Z,101920
2022-10-30T19:31:31.395Z,101930
2022-10-30T19:36:35.331Z,101940
2022-10-30T19:41:31.413Z,101940
2022-10-30T19:46:31.471Z,101940
2022-10-30T19:51:31.405Z,101950
2022-10-30T19:56:31.446Z,101960
2022-10-30T20:01:32.091Z,101970
2022-10-30T20:06:31.537Z,101980
2022-10-30T20:11:31.542Z,101990
2022-10-30T20:16:31.528Z,101970
2022-10-30T20:21:32.599Z,101970
2022-10-30T20:26:31.577Z,101970
2022-10-30T20:31:31.510Z,101970
2022-10-30T20:36:31.577Z,101980
2022-10-30T20:41:32.174Z,101980
2022-10-30T20:46:31.552Z,101980
2022-10-30T20:51:31.559Z,101990
2022-10-30T20:56:31.568Z,102000
2022-10-30T21:01:32.288Z,102000
2022-10-30T21:06:31.599Z,102010
2022-10-30T21:11:31.673Z,102000
2022-10-30T21:16:31.633Z,102010
2022-10-30T21:21:31.635Z,102010
2022-10-30T21:26:31.791Z,102020
2022-10-30T21:31:32.117Z,102020
2022-10-30T21:36:31.712Z,102020
2022-10-30T21:41:31.733Z,102020
2022-10-30T21:46:31.749Z,102010
2022-10-30T21:51:32.729Z,102010
2022-10-30T21:56:31.831Z,102020
2022-10-30T22:01:35.040Z,102020
2022-10-30T22:06:32.316Z,102020
2022-10-30T22:11:31.788Z,102030
2022-10-30T22:16:35.345Z,102040
2022-10-30T22:21:32.619Z,102040
2022-10-30T22:26:31.780Z,102040
2022-10-30T22:31:31.861Z,102040
2022-10-30T22:36:32.364Z,102060
2022-10-30T22:41:36.459Z,102070
2022-10-30T22:46:31.935Z,102060
2022-10-30T22:51:33.144Z,102060
2022-10-30T22:56:33.666Z,102060
2022-10-30T23:01:35.614Z,102070
2022-10-30T23:06:33.759Z,102070
2022-10-30T23:11:31.978Z,102070
2022-10-30T23:16:32.125Z,102070
2022-10-30T23:21:32.174Z,102070
2022-10-30T23:26:34.016Z,102070
2022-10-30T23:31:37.130Z,102070
2022-10-30T23:36:32.246Z,102070
2022-10-30T23:41:32.445Z,102070
2022-10-30T23:46:33.795Z,102070
2022-10-30T23:51:32.451Z,102070
2022-10-30T23:56:32.024Z,102070
